createdAt,value
2022-11-24T00:01:16.476Z,67.90
2022-11-24T00:03:44.209Z,65.63
2022-11-24T00:06:13.570Z,65.57
2022-11-24T00:08:43.471Z,67.55
2022-11-24T00:11:16.016Z,66.93
2022-11-24T00:13:43.874Z,69.25
2022-11-24T00:16:16.627Z,68.07
2022-11-24T00:18:45.197Z,70.82
2022-11-24T00:21:12.378Z,65.03
2022-11-24T00:23:39.240Z,67.45
2022-11-24T00:26:12.029Z,68.40
2022-11-24T00:28:39.605Z,63.42
2022-11-24T00:31:35.100Z,63.13
2022-11-24T00:34:04.549Z,66.32
2022-11-24T00:36:33.102Z,67.40
2022-11-24T00:39:02.378Z,64.65
2022-11-24T00:41:29.974Z,67.60
2022-11-24T00:43:57.038Z,69.15
2022-11-24T00:46:24.894Z,67.63
2022-11-24T00:48:52.106Z,66.65
2022-11-24T00:51:21.062Z,64.82
2022-11-24T00:53:48.099Z,65.18
2022-11-24T00:56:15.254Z,62.35
2022-11-24T00:58:42.154Z,61.65
2022-11-24T01:01:12.372Z,63.20
2022-11-24T01:03:39.982Z,60.42
2022-11-24T01:06:09.322Z,62.70
2022-11-24T01:08:38.294Z,62.13
2022-11-24T01:11:18.176Z,58.40
2022-11-24T01:13:47.086Z,61.83
2022-11-24T01:16:28.149Z,60.78
2022-11-24T01:18:55.217Z,61.65
2022-11-24T01:21:22.875Z,60.22
2022-11-24T01:23:50.080Z,63.45
2022-11-24T01:26:19.648Z,63.05
2022-11-24T01:28:47.929Z,59.13
2022-11-24T01:31:16.778Z,60.47
2022-11-24T01:33:43.841Z,58.80
2022-11-24T01:36:10.725Z,60.10
2022-11-24T01:38:37.453Z,60.45
2022-11-24T01:41:11.285Z,60.92
2022-11-24T01:43:38.424Z,59.55
2022-11-24T01:46:36.169Z,56.75
2022-11-24T01:49:08.956Z,59.30
2022-11-24T01:52:13.906Z,58.17
2022-11-24T01:54:51.665Z,57.28
2022-11-24T01:57:24.411Z,57.95
2022-11-24T01:59:55.058Z,57.35
2022-11-24T02:02:22.599Z,57.88
2022-11-24T02:04:51.000Z,57.47
2022-11-24T02:07:18.913Z,57.95
2022-11-24T02:09:51.642Z,57.70
2022-11-24T02:12:18.388Z,57.10
2022-11-24T02:14:46.093Z,55.05
2022-11-24T02:17:12.922Z,55.60
2022-11-24T02:19:39.597Z,52.38
2022-11-24T02:22:15.245Z,54.20
2022-11-24T02:24:56.293Z,52.95
2022-11-24T02:27:23.383Z,51.97
2022-11-24T02:29:50.523Z,54.10
2022-11-24T02:32:18.656Z,51.35
2022-11-24T02:34:45.482Z,53.22
2022-11-24T02:37:12.196Z,55.10
2022-11-24T02:39:38.933Z,54.85
2022-11-24T02:42:10.349Z,55.08
2022-11-24T02:44:45.514Z,54.47
2022-11-24T02:47:13.695Z,56.38
2022-11-24T02:49:40.952Z,52.75
2022-11-24T02:52:08.324Z,55.03
2022-11-24T02:54:35.343Z,51.08
2022-11-24T02:57:02.369Z,55.90
2022-11-24T02:59:29.117Z,58.17
2022-11-24T03:01:55.857Z,54.75
2022-11-24T03:04:22.691Z,57.95
2022-11-24T03:06:49.430Z,55.67
2022-11-24T03:09:16.280Z,57.13
2022-11-24T03:11:43.042Z,54.10
2022-11-24T03:14:10.074Z,50.42
2022-11-24T03:16:36.809Z,54.38
2022-11-24T03:19:04.245Z,54.38
2022-11-24T03:21:31.249Z,52.28
2022-11-24T03:23:58.117Z,51.10
2022-11-24T03:26:25.848Z,54.90
2022-11-24T03:28:57.166Z,53.45
2022-11-24T03:31:24.596Z,59.55
2022-11-24T03:33:51.654Z,48.70
2022-11-24T03:36:18.775Z,49.47
2022-11-24T03:38:45.537Z,51.08
2022-11-24T03:41:12.731Z,51.03
2022-11-24T03:43:43.799Z,51.33
2022-11-24T03:46:12.275Z,52.92
2022-11-24T03:48:39.318Z,54.20
2022-11-24T03:51:06.267Z,52.63
2022-11-24T03:53:33.700Z,50.70
2022-11-24T03:56:00.891Z,51.13
2022-11-24T03:58:27.818Z,50.17
2022-11-24T04:00:56.088Z,51.25
2022-11-24T04:03:23.642Z,50.10
2022-11-24T04:05:50.633Z,47.22
2022-11-24T04:08:18.439Z,47.00
2022-11-24T04:10:45.197Z,49.10
2022-11-24T04:13:15.384Z,45.60
2022-11-24T04:15:43.134Z,49.42
2022-11-24T04:18:11.511Z,45.33
2022-11-24T04:20:38.901Z,49.92
2022-11-24T04:23:05.794Z,48.15
2022-11-24T04:25:32.612Z,53.08
2022-11-24T04:27:59.312Z,44.60
2022-11-24T04:30:27.502Z,46.00
2022-11-24T04:32:54.218Z,43.75
2022-11-24T04:35:21.614Z,46.08
2022-11-24T04:37:48.463Z,45.85
2022-11-24T04:40:15.828Z,45.55
2022-11-24T04:42:42.610Z,42.72
2022-11-24T04:45:10.974Z,41.28
2022-11-24T04:47:38.446Z,45.88
2022-11-24T04:50:07.684Z,42.30
2022-11-24T04:52:34.505Z,46.28
2022-11-24T04:55:01.329Z,43.72
2022-11-24T04:57:28.342Z,46.78
2022-11-24T04:59:56.967Z,47.20
2022-11-24T05:02:24.199Z,44.67
2022-11-24T05:04:51.353Z,46.28
2022-11-24T05:07:19.462Z,44.45
2022-11-24T05:10:06.242Z,41.60
2022-11-24T05:12:33.169Z,42.45
2022-11-24T05:15:01.791Z,43.25
2022-11-24T05:17:33.348Z,44.28
2022-11-24T05:20:00.137Z,42.03
2022-11-24T05:22:29.649Z,42.30
2022-11-24T05:24:56.369Z,42.55
2022-11-24T05:27:23.680Z,41.72
2022-11-24T05:29:50.378Z,43.92
2022-11-24T05:32:17.147Z,41.38
2022-11-24T05:34:43.851Z,43.63
2022-11-24T05:37:10.501Z,42.90
2022-11-24T05:39:37.383Z,43.28
2022-11-24T05:42:25.664Z,42.65
2022-11-24T05:44:52.927Z,40.80
2022-11-24T05:47:19.949Z,40.80
2022-11-24T05:49:46.624Z,40.20
2022-11-24T05:52:13.402Z,42.65
2022-11-24T05:54:40.112Z,39.05
2022-11-24T05:57:06.804Z,40.38
2022-11-24T05:59:33.855Z,39.17
2022-11-24T06:02:00.699Z,37.75
2022-11-24T06:04:27.436Z,37.17
2022-11-24T06:06:54.086Z,39.30
2022-11-24T06:09:20.832Z,37.60
2022-11-24T06:11:48.436Z,37.72
2022-11-24T06:14:15.252Z,38.35
2022-11-24T06:16:42.079Z,35.90
2022-11-24T06:19:11.093Z,41.00
2022-11-24T06:21:37.907Z,38.35
2022-11-24T06:24:05.450Z,39.63
2022-11-24T06:26:32.155Z,38.60
2022-11-24T06:28:58.854Z,40.42
2022-11-24T06:31:25.613Z,38.25
2022-11-24T06:33:52.239Z,38.92
2022-11-24T06:36:18.957Z,37.35
2022-11-24T06:38:45.619Z,37.35
2022-11-24T06:41:15.008Z,36.97
2022-11-24T06:43:42.168Z,37.42
2022-11-24T06:46:09.019Z,39.38
2022-11-24T06:48:36.187Z,35.00
2022-11-24T06:51:06.770Z,36.88
2022-11-24T06:53:37.847Z,35.53
2022-11-24T06:56:15.829Z,35.65
2022-11-24T06:58:45.693Z,33.72
2022-11-24T07:01:23.879Z,34.75
2022-11-24T07:03:51.820Z,32.22
2022-11-24T07:06:19.531Z,33.75
2022-11-24T07:08:47.025Z,32.58
2022-11-24T07:11:20.148Z,33.45
2022-11-24T07:13:47.588Z,33.47
2022-11-24T07:16:22.922Z,32.85
2022-11-24T07:18:53.709Z,32.75
2022-11-24T07:21:22.730Z,31.63
2022-11-24T07:23:51.090Z,33.22
2022-11-24T07:26:18.832Z,35.63
2022-11-24T07:28:45.620Z,35.47
2022-11-24T07:31:14.873Z,34.25
2022-11-24T07:33:41.719Z,35.03
2022-11-24T07:36:09.236Z,35.80
2022-11-24T07:38:36.360Z,35.47
2022-11-24T07:41:08.271Z,38.35
2022-11-24T07:43:37.122Z,35.28
2022-11-24T07:46:07.998Z,35.55
2022-11-24T07:48:34.892Z,35.50
2022-11-24T07:51:02.787Z,32.03
2022-11-24T07:53:29.528Z,30.80
2022-11-24T07:55:59.716Z,32.28
2022-11-24T07:58:32.337Z,31.33
2022-11-24T08:01:00.449Z,30.83
2022-11-24T08:03:27.520Z,31.75
2022-11-24T08:08:46.245Z,30.90
2022-11-24T08:11:15.312Z,33.28
2022-11-24T08:13:42.592Z,31.50
2022-11-24T08:16:11.767Z,32.05
2022-11-24T08:18:39.531Z,32.40
2022-11-24T08:21:07.286Z,31.25
2022-11-24T08:23:34.306Z,30.20
2022-11-24T08:26:05.437Z,32.38
2022-11-24T08:28:32.834Z,31.73
2022-11-24T08:31:11.092Z,30.42
2022-11-24T08:33:38.871Z,31.33
2022-11-24T08:36:08.219Z,33.00
2022-11-24T08:38:35.382Z,30.90
2022-11-24T08:41:04.339Z,31.42
2022-11-24T08:43:31.541Z,29.85
2022-11-24T08:46:03.434Z,30.20
2022-11-24T08:48:30.686Z,30.17
2022-11-24T08:50:58.475Z,30.08
2022-11-24T08:53:26.010Z,29.60
2022-11-24T08:55:52.686Z,28.35
2022-11-24T08:58:19.432Z,28.95
2022-11-24T09:00:46.073Z,30.45
2022-11-24T09:03:12.921Z,28.65
2022-11-24T09:05:55.211Z,28.52
2022-11-24T09:08:21.882Z,29.10
2022-11-24T09:19:01.346Z,29.25
2022-11-24T09:23:55.996Z,29.73
2022-11-24T09:26:27.958Z,32.45
2022-11-24T09:28:57.525Z,30.40
2022-11-24T09:31:34.288Z,30.33
2022-11-24T09:34:02.432Z,30.67
2022-11-24T09:36:29.226Z,29.75
2022-11-24T09:38:55.891Z,29.35
2022-11-24T09:41:50.262Z,29.20
2022-11-24T09:44:46.157Z,28.75
2022-11-24T09:47:56.956Z,28.98
2022-11-24T09:50:27.763Z,28.30
2022-11-24T09:53:23.991Z,30.08
2022-11-24T09:55:53.557Z,29.27
2022-11-24T09:58:38.704Z,30.05
2022-11-24T10:01:13.522Z,29.02
2022-11-24T10:03:44.162Z,27.83
2022-11-24T10:06:35.699Z,28.00
2022-11-24T10:09:26.373Z,28.75
2022-11-24T10:11:57.036Z,27.58
2022-11-24T10:14:58.971Z,29.73
2022-11-24T10:18:03.405Z,29.02
2022-11-24T10:20:52.357Z,30.85
2022-11-24T10:23:27.213Z,30.05
2022-11-24T10:25:59.173Z,30.88
2022-11-24T10:28:33.385Z,30.40
2022-11-24T10:33:37.120Z,31.25
2022-11-24T10:36:09.403Z,29.63
2022-11-24T10:38:45.671Z,30.10
2022-11-24T10:41:18.355Z,29.80
2022-11-24T10:43:45.059Z,31.10
2022-11-24T10:46:26.938Z,31.88
2022-11-24T10:48:58.871Z,44.15
2022-11-24T10:51:31.590Z,28.48
2022-11-24T10:54:05.694Z,28.00
2022-11-24T10:56:43.048Z,28.40
2022-11-24T10:59:24.818Z,30.95
2022-11-24T11:01:52.836Z,29.00
2022-11-24T11:04:24.758Z,29.05
2022-11-24T11:06:51.525Z,29.08
2022-11-24T11:09:21.022Z,29.13
2022-11-24T11:11:48.830Z,32.70
2022-11-24T11:14:33.078Z,37.75
2022-11-24T11:16:59.853Z,29.63
2022-11-24T11:19:49.873Z,29.15
2022-11-24T11:22:30.473Z,27.30
2022-11-24T11:25:12.290Z,32.40
2022-11-24T11:27:40.405Z,29.88
2022-11-24T11:35:51.793Z,29.33
2022-11-24T11:38:19.512Z,29.15
2022-11-24T11:40:50.222Z,28.02
2022-11-24T11:43:28.229Z,31.90
2022-11-24T11:46:12.088Z,29.45
2022-11-24T11:48:44.769Z,30.50
2022-11-24T11:51:55.528Z,27.40
2022-11-24T11:54:41.208Z,26.73
2022-11-24T11:57:31.401Z,26.25
2022-11-24T12:00:04.058Z,26.52
2022-11-24T12:02:53.324Z,27.27
2022-11-24T12:06:11.532Z,27.17
2022-11-24T12:09:22.467Z,28.13
2022-11-24T12:12:10.441Z,27.80
2022-11-24T12:14:52.236Z,28.55
2022-11-24T12:17:33.926Z,29.85
2022-11-24T12:20:13.993Z,28.00
2022-11-24T12:23:20.224Z,27.23
2022-11-24T12:26:18.563Z,28.20
2022-11-24T12:29:08.235Z,28.05
2022-11-24T12:31:46.176Z,28.10
2022-11-24T12:34:46.164Z,28.15
2022-11-24T12:37:41.218Z,26.38
2022-11-24T12:40:20.189Z,26.50
2022-11-24T12:43:14.811Z,28.88
2022-11-24T12:46:00.086Z,26.88
2022-11-24T12:48:37.456Z,27.70
2022-11-24T12:51:06.582Z,28.67
2022-11-24T12:53:37.356Z,28.67
2022-11-24T12:56:10.656Z,28.13
2022-11-24T12:58:55.445Z,27.25
2022-11-24T13:01:22.160Z,28.10
2022-11-24T13:04:07.884Z,28.25
2022-11-24T13:06:58.635Z,28.73
2022-11-24T13:09:25.355Z,28.83
2022-11-24T13:12:08.432Z,45.80
2022-11-24T13:14:38.152Z,37.47
2022-11-24T13:17:35.184Z,29.23
2022-11-24T13:20:19.225Z,29.45
2022-11-24T13:22:52.888Z,27.77
2022-11-24T13:25:34.198Z,28.75
2022-11-24T13:28:06.595Z,28.17
2022-11-24T13:30:33.204Z,29.35
2022-11-24T13:33:16.453Z,28.73
2022-11-24T13:36:04.123Z,29.42
2022-11-24T13:38:51.480Z,29.20
2022-11-24T13:41:33.488Z,27.38
2022-11-24T13:44:15.355Z,28.90
2022-11-24T13:47:26.846Z,30.52
2022-11-24T13:49:53.621Z,31.10
2022-11-24T13:52:41.802Z,29.90
2022-11-24T13:55:15.616Z,30.50
2022-11-24T13:57:46.483Z,30.83
2022-11-24T14:00:35.534Z,31.48
2022-11-24T14:03:34.389Z,31.92
2022-11-24T14:06:02.018Z,31.25
2022-11-24T14:08:38.240Z,33.05
2022-11-24T14:11:14.427Z,31.25
2022-11-24T14:13:41.151Z,32.08
2022-11-24T14:16:15.521Z,30.88
2022-11-24T14:18:47.323Z,30.25
2022-11-24T14:21:41.237Z,30.17
2022-11-24T14:24:20.120Z,29.77
2022-11-24T14:26:47.502Z,29.73
2022-11-24T14:29:16.544Z,28.38
2022-11-24T14:31:51.835Z,30.85
2022-11-24T14:34:23.177Z,28.60
2022-11-24T14:36:51.192Z,28.00
2022-11-24T14:39:20.078Z,30.35
2022-11-24T14:42:05.556Z,28.65
2022-11-24T14:44:43.907Z,28.48
2022-11-24T14:47:19.826Z,29.67
2022-11-24T14:49:46.598Z,29.40
2022-11-24T14:52:16.297Z,28.95
2022-11-24T14:55:07.569Z,32.13
2022-11-24T14:57:44.648Z,30.02
2022-11-24T15:00:25.121Z,29.77
2022-11-24T15:03:01.116Z,31.80
2022-11-24T15:05:50.698Z,30.13
2022-11-24T15:08:17.929Z,31.60
2022-11-24T15:10:45.055Z,32.35
2022-11-24T15:13:20.953Z,33.13
2022-11-24T15:16:05.097Z,35.15
2022-11-24T15:18:55.813Z,34.15
2022-11-24T15:21:34.760Z,42.85
2022-11-24T15:24:16.892Z,36.95
2022-11-24T15:26:44.433Z,37.67
2022-11-24T15:29:11.810Z,35.05
2022-11-24T15:31:40.215Z,36.53
2022-11-24T15:34:07.920Z,35.65
2022-11-24T15:36:34.663Z,34.45
2022-11-24T15:39:01.272Z,35.10
2022-11-24T15:41:32.893Z,33.75
2022-11-24T15:43:59.768Z,37.53
2022-11-24T15:46:37.604Z,38.85
2022-11-24T15:49:05.353Z,41.50
2022-11-24T15:51:32.251Z,37.42
2022-11-24T15:54:01.413Z,39.00
2022-11-24T15:56:33.850Z,39.53
2022-11-24T15:59:01.437Z,36.80
2022-11-24T16:01:31.607Z,38.00
2022-11-24T16:03:58.452Z,36.42
2022-11-24T16:06:25.690Z,36.13
2022-11-24T16:08:53.690Z,35.65
2022-11-24T16:11:21.080Z,36.00
2022-11-24T16:13:52.437Z,37.85
2022-11-24T16:16:20.926Z,36.45
2022-11-24T16:18:47.715Z,36.13
2022-11-24T16:21:14.486Z,36.38
2022-11-24T16:23:41.285Z,34.92
2022-11-24T16:26:08.042Z,35.42
2022-11-24T16:28:34.726Z,35.00
2022-11-24T16:31:01.509Z,34.95
2022-11-24T16:33:31.294Z,38.35
2022-11-24T16:35:58.393Z,40.58
2022-11-24T16:38:25.266Z,41.50
2022-11-24T16:40:53.334Z,39.08
2022-11-24T16:43:20.445Z,36.17
2022-11-24T16:46:00.709Z,33.45
2022-11-24T16:48:27.487Z,37.42
2022-11-24T16:50:54.159Z,38.38
2022-11-24T16:53:20.863Z,36.63
2022-11-24T16:55:57.608Z,40.88
2022-11-24T16:58:24.728Z,42.00
2022-11-24T17:00:51.428Z,40.78
2022-11-24T17:03:18.196Z,40.22
2022-11-24T17:05:44.842Z,40.38
2022-11-24T17:08:11.471Z,37.97
2022-11-24T17:10:38.581Z,36.85
2022-11-24T17:13:05.289Z,36.78
2022-11-24T17:15:35.500Z,36.80
2022-11-24T17:20:51.365Z,38.63
2022-11-24T17:23:19.475Z,41.05
2022-11-24T17:25:46.230Z,46.45
2022-11-24T17:28:12.852Z,51.90
2022-11-24T17:30:39.578Z,49.83
2022-11-24T17:33:06.234Z,50.47
2022-11-24T17:35:34.726Z,41.45
2022-11-24T17:38:01.620Z,38.53
2022-11-24T17:40:29.670Z,38.03
2022-11-24T17:43:00.272Z,40.20
2022-11-24T17:45:28.782Z,52.70
2022-11-24T17:47:56.170Z,39.40
2022-11-24T17:50:25.952Z,57.70
2022-11-24T17:52:53.879Z,38.50
2022-11-24T17:55:20.735Z,43.88
2022-11-24T17:57:47.384Z,45.88
2022-11-24T18:00:14.634Z,38.92
2022-11-24T18:02:41.338Z,43.78
2022-11-24T18:05:08.513Z,36.50
2022-11-24T18:07:36.657Z,40.83
2022-11-24T18:10:04.545Z,43.20
2022-11-24T18:12:32.859Z,36.17
2022-11-24T18:14:59.808Z,37.38
2022-11-24T18:17:26.418Z,39.60
2022-11-24T18:19:53.036Z,41.92
2022-11-24T18:22:36.725Z,37.70
2022-11-24T18:25:06.970Z,45.75
2022-11-24T18:27:33.639Z,45.63
2022-11-24T18:30:00.412Z,51.00
2022-11-24T18:32:27.137Z,42.33
2022-11-24T18:34:54.075Z,37.83
2022-11-24T18:37:20.795Z,35.70
2022-11-24T18:39:47.473Z,44.30
2022-11-24T18:42:14.183Z,36.42
2022-11-24T18:44:42.290Z,38.17
2022-11-24T18:47:08.984Z,45.47
2022-11-24T18:49:35.656Z,36.42
2022-11-24T18:52:02.348Z,43.28
2022-11-24T18:54:29.385Z,40.70
2022-11-24T18:57:01.767Z,43.10
2022-11-24T18:59:29.857Z,36.55
2022-11-24T19:01:57.969Z,38.13
2022-11-24T19:04:26.150Z,42.63
2022-11-24T19:06:53.064Z,43.05
2022-11-24T19:09:22.447Z,41.13
2022-11-24T19:11:49.560Z,40.03
2022-11-24T19:14:19.015Z,37.20
2022-11-24T19:16:47.983Z,35.95
2022-11-24T19:19:15.074Z,43.08
2022-11-24T19:21:41.887Z,39.72
2022-11-24T19:24:10.097Z,38.10
2022-11-24T19:26:38.095Z,36.42
2022-11-24T19:29:06.020Z,58.22
2022-11-24T19:31:33.540Z,43.78
2022-11-24T19:34:00.737Z,52.90
2022-11-24T19:36:27.475Z,43.63
2022-11-24T19:38:58.442Z,43.55
2022-11-24T19:41:29.737Z,42.08
2022-11-24T19:43:57.898Z,41.42
2022-11-24T19:46:27.188Z,38.08
2022-11-24T19:48:56.850Z,39.78
2022-11-24T19:51:26.349Z,39.15
2022-11-24T19:53:53.890Z,43.22
2022-11-24T19:56:23.152Z,43.55
2022-11-24T19:58:50.792Z,38.35
2022-11-24T20:01:28.458Z,38.70
2022-11-24T20:04:00.619Z,38.75
2022-11-24T20:06:33.114Z,38.53
2022-11-24T20:09:01.145Z,43.47
2022-11-24T20:11:28.824Z,38.05
2022-11-24T20:13:56.399Z,40.47
2022-11-24T20:16:29.781Z,40.20
2022-11-24T20:18:58.631Z,41.28
2022-11-24T20:21:28.691Z,35.85
2022-11-24T20:24:07.387Z,35.85
2022-11-24T20:26:46.026Z,42.05
2022-11-24T20:29:13.302Z,45.72
2022-11-24T20:31:43.476Z,46.75
2022-11-24T20:34:10.813Z,45.60
2022-11-24T20:36:39.815Z,39.03
2022-11-24T20:39:09.994Z,36.55
2022-11-24T20:41:38.835Z,43.67
2022-11-24T20:44:08.370Z,44.72
2022-11-24T20:46:37.766Z,41.42
2022-11-24T20:49:06.619Z,38.72
2022-11-24T20:51:36.110Z,38.25
2022-11-24T20:54:06.429Z,40.47
2022-11-24T20:56:35.515Z,37.35
2022-11-24T20:59:03.562Z,40.45
2022-11-24T21:01:49.929Z,40.75
2022-11-24T21:04:22.540Z,35.03
2022-11-24T21:06:49.811Z,38.05
2022-11-24T21:09:16.950Z,38.50
2022-11-24T21:11:44.227Z,42.67
2022-11-24T21:14:11.272Z,42.90
2022-11-24T21:16:39.890Z,40.97
2022-11-24T21:19:11.211Z,39.22
2022-11-24T21:21:38.987Z,40.97
2022-11-24T21:24:07.476Z,39.28
2022-11-24T21:26:38.344Z,41.35
2022-11-24T21:29:06.601Z,39.55
2022-11-24T21:31:38.298Z,41.08
2022-11-24T21:34:05.974Z,39.78
2022-11-24T21:36:34.708Z,39.83
2022-11-24T21:39:02.079Z,38.35
2022-11-24T21:41:31.747Z,40.47
2022-11-24T21:43:58.542Z,41.95
2022-11-24T21:46:25.420Z,42.72
2022-11-24T21:48:52.202Z,40.17
2022-11-24T21:51:20.703Z,42.33
2022-11-24T21:53:47.821Z,42.10
2022-11-24T21:56:16.973Z,40.55
2022-11-24T21:58:45.812Z,39.60
2022-11-24T22:01:13.238Z,42.30
2022-11-24T22:03:40.023Z,39.83
2022-11-24T22:06:07.123Z,43.90
2022-11-24T22:08:34.043Z,38.97
2022-11-24T22:11:21.871Z,41.97
2022-11-24T22:13:49.064Z,41.85
2022-11-24T22:16:18.598Z,43.10
2022-11-24T22:18:45.775Z,41.58
2022-11-24T22:21:15.652Z,40.08
2022-11-24T22:23:42.936Z,41.03
2022-11-24T22:26:16.004Z,39.97
2022-11-24T22:28:43.465Z,38.53
2022-11-24T22:31:15.851Z,42.42
2022-11-24T22:33:43.732Z,40.80
2022-11-24T22:36:11.937Z,41.40
2022-11-24T22:38:39.242Z,39.47
2022-11-24T22:41:08.735Z,40.80
2022-11-24T22:43:37.047Z,39.50
2022-11-24T22:46:09.437Z,40.60
2022-11-24T22:48:36.478Z,39.55
2022-11-24T22:51:10.675Z,38.03
2022-11-24T22:56:10.256Z,37.00
2022-11-24T22:58:38.042Z,36.17
2022-11-24T23:01:22.546Z,38.80
2022-11-24T23:06:18.654Z,37.00
2022-11-24T23:08:45.289Z,39.30
2022-11-24T23:11:21.330Z,38.10
2022-11-24T23:13:53.388Z,35.83
2022-11-24T23:16:20.379Z,37.10
2022-11-24T23:18:52.339Z,36.72
2022-11-24T23:21:27.384Z,36.33
2022-11-24T23:23:54.803Z,37.15
2022-11-24T23:26:24.286Z,37.63
2022-11-24T23:28:51.274Z,35.33
2022-11-24T23:31:20.663Z,38.03
2022-11-24T23:33:47.860Z,35.03
2022-11-24T23:36:17.062Z,35.30
2022-11-24T23:38:44.460Z,36.55
2022-11-24T23:41:13.235Z,37.08
2022-11-24T23:43:41.455Z,35.78
2022-11-24T23:46:13.698Z,37.22
2022-11-24T23:48:40.883Z,35.97
2022-11-24T23:51:13.676Z,34.95
2022-11-24T23:53:41.857Z,37.28
2022-11-24T23:56:12.168Z,33.35
2022-11-24T23:58:38.854Z,35.67
